Airfield :
LOGIN :

Register | Disclaimer

   EN    FR    IT 

 










Legend :    VFR   Marginal VFR   IFR   Intensive IFR   Very Intensive IFR
Visi :
Ceiling :
>= 8 km
>= 3000ft
5 to 8 km
1000 to 3000 ft
1500m to 5 km
500 to 1000 ft
800 to 1500m
200 to 500 ft
< 800m
< 200 ft
Symbols :   Thunderstorms  Fog  Heavy snow  Heavy precipitations  Wind > 20 kt
SIGMETs :     Misc.  Thunderstorms  Icing  Turbulence  Mountain Waves  Volcanic Ashes







- Airport Elevation : 299 ft
- IATA code : EDM
- Download approach charts


LFRI - La Roche Sur Yon - Les Ajoncs

CURRENT METAR :
  • 200730Z AUTO VRB03KT CAVOK 15/12 Q1027 NOSIG

EXPIRED METARs :
  • 200700Z AUTO VRB02KT CAVOK 13/12 Q1026 NOSIG
  • 200630Z AUTO 00000KT CAVOK 12/12 Q1026 NOSIG
  • 200600Z AUTO 02001KT CAVOK 09/09 Q1026 NOSIG
  • 200530Z AUTO 02003KT CAVOK 08/08 Q1026 NOSIG
  • 200500Z AUTO 04002KT 9000 1800 NSC 09/09 Q1025

TAF TAF LFRI
Valid from the 20 at 06:00 until the 21 at 06:00 UTC


200500Z 2006/2106 VRB04KT CAVOK
No reported NOTAMs for that airfield.



MET'MAP, your aeronautical weather chart ! - Copyright ORBIFLY December 2007 - Disclaimer

ORBIFLY MET'MAP TEAM :

Programming & Development : Alexandra Zaïnal
Concept & Development : Baudouin d'Aumeries
Co-Development & Prog : Marc-Olivier Méhu
Technical & hardware support : Manuel Goepfert

Contact : metmap@orbifly.com




SOURCES & CREDITS :

   NOAA